createdAt,value
2018-11-21T00:00:24.567Z,100300.06
2018-11-21T00:05:28.259Z,100305.52
2018-11-21T00:10:31.794Z,100306.14
2018-11-21T00:15:35.283Z,100312.74
2018-11-21T00:20:38.741Z,100309.67
2018-11-21T00:25:42.299Z,100299.20
2018-11-21T00:30:45.812Z,100301.98
2018-11-21T00:35:49.308Z,100293.08
2018-11-21T00:40:52.803Z,100297.13
2018-11-21T00:45:56.341Z,100303.84
2018-11-21T00:50:59.820Z,100310.42
2018-11-21T00:56:03.356Z,100311.64
2018-11-21T01:01:06.979Z,100318.71
2018-11-21T01:06:10.444Z,100318.22
2018-11-21T01:11:13.922Z,100319.20
2018-11-21T01:16:17.413Z,100323.09
2018-11-21T01:21:20.921Z,100323.83
2018-11-21T01:26:24.406Z,100325.66
2018-11-21T01:31:28.332Z,100323.08
2018-11-21T01:36:31.880Z,100320.77
2018-11-21T01:41:35.324Z,100321.35
2018-11-21T01:46:38.801Z,100333.19
2018-11-21T01:51:42.302Z,100332.09
2018-11-21T01:56:45.744Z,100324.26
2018-11-21T02:01:49.204Z,100334.02
2018-11-21T02:06:52.720Z,100340.72
2018-11-21T02:11:56.227Z,100331.09
2018-11-21T02:16:59.711Z,100332.65
2018-11-21T02:22:03.185Z,100338.14
2018-11-21T02:27:06.697Z,100330.42
2018-11-21T02:32:10.204Z,100328.11
2018-11-21T02:37:13.678Z,100328.44
2018-11-21T02:42:17.160Z,100334.05
2018-11-21T02:47:20.681Z,100338.31
2018-11-21T02:52:24.229Z,100344.53
2018-11-21T02:57:31.527Z,100342.42
2018-11-21T03:02:35.034Z,100346.57
2018-11-21T03:07:49.568Z,100354.25
2018-11-21T03:12:53.074Z,100350.34
2018-11-21T03:17:56.582Z,100348.15
2018-11-21T03:23:00.072Z,100338.88
2018-11-21T03:28:03.586Z,100336.05
2018-11-21T03:33:07.071Z,100336.91
2018-11-21T03:38:10.546Z,100348.11
2018-11-21T03:43:14.047Z,100340.44
2018-11-21T03:48:17.529Z,100343.23
2018-11-21T03:53:20.986Z,100347.95
2018-11-21T03:58:24.472Z,100348.55
2018-11-21T04:03:27.965Z,100361.59
2018-11-21T04:08:31.478Z,100360.00
2018-11-21T04:13:34.965Z,100362.31
2018-11-21T04:18:38.416Z,100362.31
2018-11-21T04:23:41.891Z,100358.02
2018-11-21T04:28:45.347Z,100368.98
2018-11-21T04:33:48.856Z,100370.80
2018-11-21T04:38:52.376Z,100369.58
2018-11-21T04:43:55.853Z,100382.59
2018-11-21T04:48:59.348Z,100386.98
2018-11-21T04:54:02.820Z,100388.81
2018-11-21T04:59:06.882Z,100390.11
2018-11-21T05:04:10.447Z,100396.97
2018-11-21T05:09:14.108Z,100384.62
2018-11-21T05:14:17.625Z,100380.61
2018-11-21T05:19:21.165Z,100385.84
2018-11-21T05:24:24.709Z,100392.11
2018-11-21T05:29:28.237Z,100406.53
2018-11-21T05:34:31.736Z,100411.66
2018-11-21T05:39:35.224Z,100411.17
2018-11-21T05:44:38.726Z,100411.30
2018-11-21T05:49:42.239Z,100423.64
2018-11-21T05:54:45.690Z,100427.80
2018-11-21T05:59:49.308Z,100433.65
2018-11-21T06:04:52.849Z,100435.11
2018-11-21T06:09:56.300Z,100445.27
2018-11-21T06:14:59.888Z,100444.18
2018-11-21T06:20:03.405Z,100452.88
2018-11-21T06:25:07.871Z,100461.04
2018-11-21T06:30:13.246Z,100470.67
2018-11-21T06:35:16.849Z,100483.77
2018-11-21T06:40:20.311Z,100492.67
2018-11-21T06:45:25.452Z,100492.55
2018-11-21T06:50:28.957Z,100486.81
2018-11-21T06:55:33.165Z,100499.50
2018-11-21T07:00:36.725Z,100505.72
2018-11-21T07:05:40.383Z,100510.36
2018-11-21T07:10:44.142Z,100515.23
2018-11-21T07:15:47.994Z,100515.11
2018-11-21T07:20:51.437Z,100516.25
2018-11-21T07:25:55.257Z,100517.95
2018-11-21T07:30:58.990Z,100525.16
2018-11-21T07:36:03.081Z,100534.91
2018-11-21T07:41:06.611Z,100543.45
2018-11-21T07:46:10.109Z,100551.38
2018-11-21T07:51:13.625Z,100550.41
2018-11-21T07:57:05.451Z,100562.11
2018-11-21T08:02:12.854Z,100556.75
2018-11-21T08:07:47.293Z,100560.53
2018-11-21T08:13:03.885Z,100571.55
2018-11-21T08:18:25.933Z,100584.02
2018-11-21T08:23:48.561Z,100578.22
2018-11-21T08:28:52.033Z,100576.11
2018-11-21T08:33:55.549Z,100575.77
2018-11-21T08:38:59.017Z,100572.47
2018-11-21T08:44:02.514Z,100569.92
2018-11-21T08:49:06.215Z,100571.51
2018-11-21T08:54:09.649Z,100568.97
2018-11-21T08:59:13.175Z,100574.70
2018-11-21T09:04:17.042Z,100576.09
2018-11-21T09:09:20.719Z,100584.52
2018-11-21T09:14:24.177Z,100583.98
2018-11-21T09:19:27.980Z,100586.66
2018-11-21T09:24:31.475Z,100599.72
2018-11-21T09:29:35.005Z,100598.86
2018-11-21T09:35:13.934Z,100609.48
2018-11-21T09:40:18.933Z,100611.07
2018-11-21T09:45:23.499Z,100613.91
2018-11-21T09:50:28.736Z,100598.74
2018-11-21T09:55:32.197Z,100609.98
2018-11-21T10:01:12.646Z,100617.67
2018-11-21T10:06:18.937Z,100626.55
2018-11-21T10:11:22.887Z,100627.36
2018-11-21T10:16:26.476Z,100618.14
2018-11-21T10:21:31.697Z,100630.47
2018-11-21T10:26:35.141Z,100625.19
2018-11-21T10:31:38.583Z,100626.67
2018-11-21T10:36:42.051Z,100628.58
2018-11-21T10:41:45.720Z,100624.50
2018-11-21T10:46:49.150Z,100629.20
2018-11-21T10:51:52.724Z,100624.13
2018-11-21T10:56:56.679Z,100618.05
2018-11-21T11:02:18.101Z,100623.95
2018-11-21T11:07:39.679Z,100625.30
2018-11-21T11:13:00.418Z,100628.58
2018-11-21T11:18:23.013Z,100629.43
2018-11-21T11:23:45.584Z,100627.31
2018-11-21T11:29:07.003Z,100626.81
2018-11-21T11:34:32.218Z,100620.66
2018-11-21T11:40:09.749Z,100629.06
2018-11-21T11:45:23.394Z,100632.85
2018-11-21T11:50:51.924Z,100639.39
2018-11-21T11:56:12.987Z,100648.61
2018-11-21T12:01:33.011Z,100652.67
2018-11-21T12:06:54.208Z,100649.33
2018-11-21T12:12:15.468Z,100649.33
2018-11-21T12:17:37.751Z,100648.70
2018-11-21T12:22:55.481Z,100645.91
2018-11-21T12:28:06.456Z,100642.28
2018-11-21T12:33:33.631Z,100635.34
2018-11-21T12:38:59.099Z,100639.11
2018-11-21T12:44:20.602Z,100629.50
2018-11-21T12:49:42.007Z,100626.81
2018-11-21T12:55:07.439Z,100625.61
2018-11-21T13:00:19.966Z,100629.31
2018-11-21T13:05:42.962Z,100629.31
2018-11-21T13:10:55.398Z,100629.31
2018-11-21T13:16:09.549Z,100619.06
2018-11-21T13:21:32.116Z,100626.52
2018-11-21T13:27:09.902Z,100631.16
2018-11-21T13:32:35.455Z,100630.22
2018-11-21T13:38:07.618Z,100631.28
2018-11-21T13:43:29.257Z,100628.09
2018-11-21T13:48:47.644Z,100637.38
2018-11-21T13:54:13.354Z,100634.33
2018-11-21T13:59:16.861Z,100634.70
2018-11-21T14:04:20.440Z,100643.95
2018-11-21T14:09:24.242Z,100646.76
2018-11-21T14:14:27.733Z,100653.11
2018-11-21T14:19:31.211Z,100657.86
2018-11-21T14:24:34.690Z,100658.72
2018-11-21T14:29:38.222Z,100668.16
2018-11-21T14:34:41.707Z,100662.97
2018-11-21T14:39:45.296Z,100662.60
2018-11-21T14:44:48.998Z,100668.34
2018-11-21T14:49:56.153Z,100673.59
2018-11-21T14:54:59.592Z,100677.02
2018-11-21T15:00:03.276Z,100677.98
2018-11-21T15:05:07.672Z,100688.66
2018-11-21T15:10:11.971Z,100688.23
2018-11-21T15:15:17.021Z,100696.14
2018-11-21T15:20:24.746Z,100694.14
2018-11-21T15:25:28.237Z,100697.31
2018-11-21T15:30:32.071Z,100695.28
2018-11-21T15:35:35.498Z,100703.05
2018-11-21T15:40:38.950Z,100697.42
2018-11-21T15:45:42.380Z,100699.02
2018-11-21T15:50:45.925Z,100701.11
2018-11-21T15:55:49.542Z,100700.22
2018-11-21T16:00:53.108Z,100704.92
2018-11-21T16:05:56.712Z,100706.56
2018-11-21T16:11:00.447Z,100716.92
2018-11-21T16:16:03.974Z,100728.02
2018-11-21T16:21:07.444Z,100729.51
2018-11-21T16:26:10.948Z,100728.77
2018-11-21T16:31:14.506Z,100734.24
2018-11-21T16:36:18.036Z,100738.89
2018-11-21T16:41:21.558Z,100744.03
2018-11-21T16:46:25.060Z,100742.55
2018-11-21T16:51:28.707Z,100744.38
2018-11-21T16:56:32.199Z,100747.92
2018-11-21T17:01:35.780Z,100764.39
2018-11-21T17:06:39.343Z,100764.86
2018-11-21T17:11:42.821Z,100771.31
2018-11-21T17:16:46.301Z,100761.96
2018-11-21T17:21:49.782Z,100763.77
2018-11-21T17:26:53.271Z,100771.09
2018-11-21T17:31:58.584Z,100773.39
2018-11-21T17:37:02.084Z,100775.84
2018-11-21T17:42:05.802Z,100779.34
2018-11-21T17:47:09.254Z,100777.95
2018-11-21T17:52:12.694Z,100775.56
2018-11-21T17:57:16.173Z,100781.31
2018-11-21T18:02:19.795Z,100793.69
2018-11-21T18:07:23.207Z,100785.83
2018-11-21T18:12:26.718Z,100791.69
2018-11-21T18:17:30.289Z,100794.87
2018-11-21T18:22:33.849Z,100798.70
2018-11-21T18:27:37.588Z,100799.34
2018-11-21T18:32:42.113Z,100797.23
2018-11-21T18:37:46.186Z,100796.98
2018-11-21T18:42:49.833Z,100799.42
2018-11-21T18:47:53.505Z,100795.02
2018-11-21T18:52:58.131Z,100807.78
2018-11-21T18:58:31.610Z,100813.16
2018-11-21T19:03:35.041Z,100814.33
2018-11-21T19:08:38.563Z,100822.32
2018-11-21T19:13:42.172Z,100821.05
2018-11-21T19:18:45.661Z,100826.52
2018-11-21T19:23:49.138Z,100831.82
2018-11-21T19:28:52.702Z,100834.73
2018-11-21T19:33:56.216Z,100829.41
2018-11-21T19:38:59.804Z,100825.75
2018-11-21T19:44:03.346Z,100832.17
2018-11-21T19:49:06.783Z,100832.05
2018-11-21T19:54:10.405Z,100835.84
2018-11-21T19:59:13.896Z,100839.14
2018-11-21T20:04:17.399Z,100838.62
2018-11-21T20:09:20.869Z,100839.56
2018-11-21T20:14:24.434Z,100838.30
2018-11-21T20:19:27.921Z,100839.34
2018-11-21T20:24:31.382Z,100835.46
2018-11-21T20:29:35.142Z,100825.76
2018-11-21T20:34:39.034Z,100836.98
2018-11-21T20:39:46.833Z,100834.31
2018-11-21T20:44:46.591Z,100836.48
2018-11-21T20:49:50.109Z,100839.17
2018-11-21T20:54:53.682Z,100841.98
2018-11-21T20:59:57.277Z,100827.66
2018-11-21T21:05:00.757Z,100848.64
2018-11-21T21:10:04.544Z,100850.75
2018-11-21T21:15:09.593Z,100849.75
2018-11-21T21:20:15.058Z,100849.12
2018-11-21T21:25:20.204Z,100843.64
2018-11-21T21:30:25.783Z,100846.04
2018-11-21T21:35:30.697Z,100843.55
2018-11-21T21:40:34.183Z,100841.33
2018-11-21T21:45:37.789Z,100853.19
2018-11-21T21:50:41.355Z,100861.70
2018-11-21T21:55:44.802Z,100854.98
2018-11-21T22:00:48.291Z,100855.55
2018-11-21T22:05:51.858Z,100857.38
2018-11-21T22:10:55.283Z,100866.52
2018-11-21T22:15:58.769Z,100866.16
2018-11-21T22:21:02.266Z,100865.18
2018-11-21T22:26:06.024Z,100868.58
2018-11-21T22:31:09.520Z,100864.00
2018-11-21T22:36:12.970Z,100871.34
2018-11-21T22:41:16.425Z,100867.55
2018-11-21T22:46:19.918Z,100863.86
2018-11-21T22:51:23.364Z,100861.69
2018-11-21T22:56:26.804Z,100854.84
2018-11-21T23:01:32.408Z,100855.80
2018-11-21T23:06:35.986Z,100854.09
2018-11-21T23:11:39.664Z,100860.36
2018-11-21T23:16:43.354Z,100865.13
2018-11-21T23:21:49.896Z,100870.61
2018-11-21T23:26:53.782Z,100871.64
2018-11-21T23:31:57.266Z,100869.64
2018-11-21T23:37:00.722Z,100867.16
2018-11-21T23:42:04.175Z,100863.50
2018-11-21T23:47:07.953Z,100867.38
2018-11-21T23:52:11.493Z,100871.09
2018-11-21T23:57:16.327Z,100877.03
